sensor_id;sensor_type;location;lat;lon;timestamp;P1;durP1;ratioP1;P2;durP2;ratioP2
71696;SDS011;68167;59.120;37.898;2023-05-10T00:00:38;8.67;;;2.87;;
71696;SDS011;68167;59.120;37.898;2023-05-10T00:03:04;10.30;;;3.00;;
71696;SDS011;68167;59.120;37.898;2023-05-10T00:05:31;6.93;;;3.07;;
71696;SDS011;68167;59.120;37.898;2023-05-10T00:07:58;9.30;;;2.90;;
71696;SDS011;68167;59.120;37.898;2023-05-10T00:10:24;7.23;;;2.90;;
71696;SDS011;68167;59.120;37.898;2023-05-10T00:12:50;7.73;;;2.80;;
71696;SDS011;68167;59.120;37.898;2023-05-10T00:15:17;20.47;;;3.47;;
71696;SDS011;68167;59.120;37.898;2023-05-10T00:17:43;8.17;;;2.93;;
71696;SDS011;68167;59.120;37.898;2023-05-10T00:20:10;7.53;;;3.03;;
71696;SDS011;68167;59.120;37.898;2023-05-10T00:22:36;7.73;;;3.30;;
71696;SDS011;68167;59.120;37.898;2023-05-10T00:25:08;5.97;;;3.40;;
71696;SDS011;68167;59.120;37.898;2023-05-10T00:27:35;14.47;;;3.37;;
71696;SDS011;68167;59.120;37.898;2023-05-10T00:30:01;6.90;;;3.03;;
71696;SDS011;68167;59.120;37.898;2023-05-10T00:32:33;9.77;;;3.00;;
71696;SDS011;68167;59.120;37.898;2023-05-10T00:34:59;4.97;;;2.70;;
71696;SDS011;68167;59.120;37.898;2023-05-10T00:37:26;5.97;;;2.90;;
71696;SDS011;68167;59.120;37.898;2023-05-10T00:39:54;3.47;;;2.77;;
71696;SDS011;68167;59.120;37.898;2023-05-10T00:42:21;5.10;;;2.83;;
71696;SDS011;68167;59.120;37.898;2023-05-10T00:44:48;9.67;;;3.30;;
71696;SDS011;68167;59.120;37.898;2023-05-10T00:47:15;6.23;;;3.10;;
71696;SDS011;68167;59.120;37.898;2023-05-10T00:49:42;5.23;;;3.00;;
71696;SDS011;68167;59.120;37.898;2023-05-10T00:52:10;3.07;;;2.50;;
71696;SDS011;68167;59.120;37.898;2023-05-10T00:54:37;5.17;;;3.20;;
71696;SDS011;68167;59.120;37.898;2023-05-10T00:57:03;5.57;;;2.70;;
71696;SDS011;68167;59.120;37.898;2023-05-10T00:59:30;6.23;;;2.87;;
71696;SDS011;68167;59.120;37.898;2023-05-10T01:01:57;6.37;;;3.50;;
71696;SDS011;68167;59.120;37.898;2023-05-10T01:04:23;6.93;;;2.70;;
71696;SDS011;68167;59.120;37.898;2023-05-10T01:06:52;9.97;;;3.10;;
71696;SDS011;68167;59.120;37.898;2023-05-10T01:09:20;5.30;;;2.70;;
71696;SDS011;68167;59.120;37.898;2023-05-10T01:11:47;4.80;;;2.70;;
71696;SDS011;68167;59.120;37.898;2023-05-10T01:14:15;9.33;;;3.03;;
71696;SDS011;68167;59.120;37.898;2023-05-10T01:16:44;5.90;;;2.87;;
71696;SDS011;68167;59.120;37.898;2023-05-10T01:19:22;6.10;;;2.77;;
71696;SDS011;68167;59.120;37.898;2023-05-10T01:32:51;13.10;;;4.33;;
71696;SDS011;68167;59.120;37.898;2023-05-10T01:35:40;7.90;;;3.90;;
71696;SDS011;68167;59.120;37.898;2023-05-10T01:38:34;5.03;;;3.17;;
71696;SDS011;68167;59.120;37.898;2023-05-10T01:43:53;7.87;;;3.40;;
71696;SDS011;68167;59.120;37.898;2023-05-10T01:46:39;6.03;;;3.20;;
71696;SDS011;68167;59.120;37.898;2023-05-10T01:52:09;9.90;;;3.33;;
71696;SDS011;68167;59.120;37.898;2023-05-10T01:54:38;6.73;;;3.30;;
71696;SDS011;68167;59.120;37.898;2023-05-10T01:57:15;10.23;;;3.57;;
71696;SDS011;68167;59.120;37.898;2023-05-10T01:59:46;7.73;;;3.50;;
71696;SDS011;68167;59.120;37.898;2023-05-10T02:02:17;12.47;;;3.50;;
71696;SDS011;68167;59.120;37.898;2023-05-10T02:04:47;9.30;;;3.30;;
71696;SDS011;68167;59.120;37.898;2023-05-10T02:07:15;14.27;;;3.30;;
71696;SDS011;68167;59.120;37.898;2023-05-10T02:09:44;12.77;;;3.23;;
71696;SDS011;68167;59.120;37.898;2023-05-10T02:12:14;8.07;;;3.20;;
71696;SDS011;68167;59.120;37.898;2023-05-10T02:14:42;8.30;;;3.90;;
71696;SDS011;68167;59.120;37.898;2023-05-10T02:17:10;11.10;;;4.27;;
71696;SDS011;68167;59.120;37.898;2023-05-10T02:19:40;19.00;;;4.43;;
71696;SDS011;68167;59.120;37.898;2023-05-10T02:22:07;5.80;;;4.80;;
71696;SDS011;68167;59.120;37.898;2023-05-10T02:24:35;6.17;;;4.53;;
71696;SDS011;68167;59.120;37.898;2023-05-10T02:27:03;10.80;;;4.40;;
71696;SDS011;68167;59.120;37.898;2023-05-10T02:29:31;15.13;;;5.17;;
71696;SDS011;68167;59.120;37.898;2023-05-10T02:31:59;15.13;;;4.03;;
71696;SDS011;68167;59.120;37.898;2023-05-10T02:34:26;13.77;;;4.47;;
71696;SDS011;68167;59.120;37.898;2023-05-10T02:36:54;14.20;;;3.73;;
71696;SDS011;68167;59.120;37.898;2023-05-10T02:39:22;10.97;;;3.57;;
71696;SDS011;68167;59.120;37.898;2023-05-10T02:41:50;7.57;;;3.83;;
71696;SDS011;68167;59.120;37.898;2023-05-10T02:44:18;16.40;;;3.70;;
71696;SDS011;68167;59.120;37.898;2023-05-10T02:46:46;7.27;;;3.43;;
71696;SDS011;68167;59.120;37.898;2023-05-10T02:49:14;5.87;;;2.97;;
71696;SDS011;68167;59.120;37.898;2023-05-10T02:51:42;7.90;;;3.27;;
71696;SDS011;68167;59.120;37.898;2023-05-10T02:54:20;7.73;;;3.53;;
71696;SDS011;68167;59.120;37.898;2023-05-10T02:56:52;7.27;;;3.53;;
71696;SDS011;68167;59.120;37.898;2023-05-10T02:59:22;10.77;;;3.20;;
71696;SDS011;68167;59.120;37.898;2023-05-10T03:01:49;5.37;;;3.50;;
71696;SDS011;68167;59.120;37.898;2023-05-10T03:04:15;7.73;;;2.67;;
71696;SDS011;68167;59.120;37.898;2023-05-10T03:06:41;10.93;;;3.27;;
71696;SDS011;68167;59.120;37.898;2023-05-10T03:09:08;12.93;;;3.93;;
71696;SDS011;68167;59.120;37.898;2023-05-10T03:14:20;7.73;;;3.90;;
71696;SDS011;68167;59.120;37.898;2023-05-10T03:16:57;6.43;;;3.43;;
71696;SDS011;68167;59.120;37.898;2023-05-10T03:19:32;12.30;;;4.40;;
71696;SDS011;68167;59.120;37.898;2023-05-10T03:22:07;14.63;;;4.77;;
71696;SDS011;68167;59.120;37.898;2023-05-10T03:24:37;7.53;;;3.47;;
71696;SDS011;68167;59.120;37.898;2023-05-10T03:27:08;10.47;;;3.40;;
71696;SDS011;68167;59.120;37.898;2023-05-10T03:29:35;6.40;;;3.87;;
71696;SDS011;68167;59.120;37.898;2023-05-10T03:32:04;10.07;;;3.67;;
71696;SDS011;68167;59.120;37.898;2023-05-10T03:34:31;9.80;;;4.03;;
71696;SDS011;68167;59.120;37.898;2023-05-10T03:36:57;14.63;;;4.20;;
71696;SDS011;68167;59.120;37.898;2023-05-10T03:39:26;10.40;;;4.10;;
71696;SDS011;68167;59.120;37.898;2023-05-10T03:41:56;21.27;;;4.73;;
71696;SDS011;68167;59.120;37.898;2023-05-10T03:44:23;14.83;;;5.50;;
71696;SDS011;68167;59.120;37.898;2023-05-10T03:46:49;21.03;;;4.30;;
71696;SDS011;68167;59.120;37.898;2023-05-10T03:49:15;17.90;;;5.07;;
71696;SDS011;68167;59.120;37.898;2023-05-10T03:51:42;13.83;;;4.60;;
71696;SDS011;68167;59.120;37.898;2023-05-10T03:54:08;11.40;;;4.63;;
71696;SDS011;68167;59.120;37.898;2023-05-10T03:56:35;12.13;;;5.07;;
71696;SDS011;68167;59.120;37.898;2023-05-10T03:59:01;12.17;;;4.70;;
71696;SDS011;68167;59.120;37.898;2023-05-10T04:01:33;9.60;;;4.60;;
71696;SDS011;68167;59.120;37.898;2023-05-10T04:04:00;12.30;;;5.07;;
71696;SDS011;68167;59.120;37.898;2023-05-10T04:06:27;15.47;;;5.07;;
71696;SDS011;68167;59.120;37.898;2023-05-10T04:08:54;14.97;;;5.07;;
71696;SDS011;68167;59.120;37.898;2023-05-10T04:11:21;16.40;;;5.30;;
71696;SDS011;68167;59.120;37.898;2023-05-10T04:13:47;18.97;;;6.63;;
71696;SDS011;68167;59.120;37.898;2023-05-10T04:16:14;17.50;;;5.97;;
71696;SDS011;68167;59.120;37.898;2023-05-10T04:18:40;11.80;;;5.40;;
71696;SDS011;68167;59.120;37.898;2023-05-10T04:21:13;15.60;;;5.30;;
71696;SDS011;68167;59.120;37.898;2023-05-10T04:23:40;10.20;;;5.80;;
71696;SDS011;68167;59.120;37.898;2023-05-10T04:26:07;19.23;;;6.87;;
71696;SDS011;68167;59.120;37.898;2023-05-10T04:28:33;26.00;;;6.90;;
71696;SDS011;68167;59.120;37.898;2023-05-10T04:31:03;27.40;;;6.97;;
71696;SDS011;68167;59.120;37.898;2023-05-10T04:33:30;37.80;;;7.60;;
71696;SDS011;68167;59.120;37.898;2023-05-10T04:35:57;26.03;;;7.57;;
71696;SDS011;68167;59.120;37.898;2023-05-10T04:38:23;23.63;;;7.07;;
71696;SDS011;68167;59.120;37.898;2023-05-10T04:40:50;32.63;;;8.20;;
71696;SDS011;68167;59.120;37.898;2023-05-10T04:43:16;30.97;;;7.33;;
71696;SDS011;68167;59.120;37.898;2023-05-10T04:45:43;22.67;;;7.50;;
71696;SDS011;68167;59.120;37.898;2023-05-10T04:48:09;22.57;;;7.30;;
71696;SDS011;68167;59.120;37.898;2023-05-10T04:50:36;33.87;;;8.47;;
71696;SDS011;68167;59.120;37.898;2023-05-10T04:53:02;35.50;;;8.37;;
71696;SDS011;68167;59.120;37.898;2023-05-10T04:55:28;25.97;;;7.63;;
71696;SDS011;68167;59.120;37.898;2023-05-10T04:57:55;33.57;;;7.87;;
71696;SDS011;68167;59.120;37.898;2023-05-10T05:00:23;40.53;;;8.60;;
71696;SDS011;68167;59.120;37.898;2023-05-10T05:02:50;30.07;;;8.07;;
71696;SDS011;68167;59.120;37.898;2023-05-10T05:05:17;20.43;;;6.07;;
71696;SDS011;68167;59.120;37.898;2023-05-10T05:07:44;26.57;;;7.07;;
71696;SDS011;68167;59.120;37.898;2023-05-10T05:10:10;21.33;;;7.07;;
71696;SDS011;68167;59.120;37.898;2023-05-10T05:12:36;25.80;;;6.97;;
71696;SDS011;68167;59.120;37.898;2023-05-10T05:15:03;26.63;;;6.57;;
71696;SDS011;68167;59.120;37.898;2023-05-10T05:17:30;24.63;;;7.20;;
71696;SDS011;68167;59.120;37.898;2023-05-10T05:19:57;23.53;;;6.20;;
71696;SDS011;68167;59.120;37.898;2023-05-10T05:22:23;22.73;;;6.13;;
71696;SDS011;68167;59.120;37.898;2023-05-10T05:24:53;14.70;;;6.33;;
71696;SDS011;68167;59.120;37.898;2023-05-10T05:27:20;24.10;;;6.27;;
71696;SDS011;68167;59.120;37.898;2023-05-10T05:29:50;23.47;;;6.23;;
71696;SDS011;68167;59.120;37.898;2023-05-10T05:32:18;23.57;;;6.63;;
71696;SDS011;68167;59.120;37.898;2023-05-10T05:34:44;22.80;;;6.83;;
71696;SDS011;68167;59.120;37.898;2023-05-10T05:37:15;21.13;;;6.70;;
71696;SDS011;68167;59.120;37.898;2023-05-10T05:39:42;26.03;;;7.23;;
71696;SDS011;68167;59.120;37.898;2023-05-10T05:42:09;30.27;;;8.27;;
71696;SDS011;68167;59.120;37.898;2023-05-10T05:44:36;29.47;;;8.20;;
71696;SDS011;68167;59.120;37.898;2023-05-10T05:47:03;27.47;;;7.60;;
71696;SDS011;68167;59.120;37.898;2023-05-10T05:49:30;24.97;;;7.40;;
71696;SDS011;68167;59.120;37.898;2023-05-10T05:52:02;26.63;;;7.97;;
71696;SDS011;68167;59.120;37.898;2023-05-10T05:54:30;26.80;;;6.80;;
71696;SDS011;68167;59.120;37.898;2023-05-10T05:56:57;20.97;;;8.77;;
71696;SDS011;68167;59.120;37.898;2023-05-10T05:59:24;33.30;;;11.80;;
71696;SDS011;68167;59.120;37.898;2023-05-10T06:01:50;34.20;;;12.37;;
71696;SDS011;68167;59.120;37.898;2023-05-10T06:04:17;27.90;;;8.83;;
71696;SDS011;68167;59.120;37.898;2023-05-10T06:06:43;29.43;;;7.47;;
71696;SDS011;68167;59.120;37.898;2023-05-10T06:09:10;23.53;;;7.10;;
71696;SDS011;68167;59.120;37.898;2023-05-10T06:11:37;26.20;;;6.37;;
71696;SDS011;68167;59.120;37.898;2023-05-10T06:14:04;16.53;;;5.53;;
71696;SDS011;68167;59.120;37.898;2023-05-10T06:16:33;21.67;;;6.47;;
71696;SDS011;68167;59.120;37.898;2023-05-10T06:19:00;23.97;;;7.47;;
71696;SDS011;68167;59.120;37.898;2023-05-10T06:21:26;26.10;;;9.90;;
71696;SDS011;68167;59.120;37.898;2023-05-10T06:23:53;24.70;;;9.03;;
71696;SDS011;68167;59.120;37.898;2023-05-10T06:26:19;20.23;;;7.60;;
71696;SDS011;68167;59.120;37.898;2023-05-10T06:28:46;16.93;;;6.43;;
71696;SDS011;68167;59.120;37.898;2023-05-10T06:31:13;17.47;;;5.60;;
71696;SDS011;68167;59.120;37.898;2023-05-10T06:33:39;16.00;;;5.17;;
71696;SDS011;68167;59.120;37.898;2023-05-10T06:36:06;13.33;;;4.27;;
71696;SDS011;68167;59.120;37.898;2023-05-10T06:38:33;10.17;;;4.20;;
71696;SDS011;68167;59.120;37.898;2023-05-10T06:40:59;17.27;;;5.30;;
71696;SDS011;68167;59.120;37.898;2023-05-10T06:43:26;12.90;;;4.63;;
71696;SDS011;68167;59.120;37.898;2023-05-10T06:45:54;16.93;;;5.77;;
71696;SDS011;68167;59.120;37.898;2023-05-10T06:48:20;22.20;;;7.37;;
71696;SDS011;68167;59.120;37.898;2023-05-10T06:50:47;15.00;;;6.93;;
71696;SDS011;68167;59.120;37.898;2023-05-10T06:53:13;23.73;;;9.90;;
71696;SDS011;68167;59.120;37.898;2023-05-10T06:55:39;24.37;;;10.50;;
71696;SDS011;68167;59.120;37.898;2023-05-10T06:58:06;24.73;;;9.80;;
71696;SDS011;68167;59.120;37.898;2023-05-10T07:00:32;14.73;;;6.10;;
71696;SDS011;68167;59.120;37.898;2023-05-10T07:02:58;8.73;;;2.83;;
71696;SDS011;68167;59.120;37.898;2023-05-10T07:05:25;15.10;;;3.57;;
71696;SDS011;68167;59.120;37.898;2023-05-10T07:07:53;13.70;;;3.13;;
71696;SDS011;68167;59.120;37.898;2023-05-10T07:10:19;4.23;;;1.70;;
71696;SDS011;68167;59.120;37.898;2023-05-10T07:12:46;6.63;;;1.60;;
71696;SDS011;68167;59.120;37.898;2023-05-10T07:15:12;7.23;;;1.30;;
71696;SDS011;68167;59.120;37.898;2023-05-10T07:17:38;9.67;;;2.07;;
71696;SDS011;68167;59.120;37.898;2023-05-10T07:20:05;2.87;;;1.43;;
71696;SDS011;68167;59.120;37.898;2023-05-10T07:22:32;4.37;;;1.40;;
71696;SDS011;68167;59.120;37.898;2023-05-10T07:24:59;6.17;;;1.37;;
71696;SDS011;68167;59.120;37.898;2023-05-10T07:27:25;7.03;;;1.27;;
71696;SDS011;68167;59.120;37.898;2023-05-10T07:29:51;5.00;;;1.10;;
71696;SDS011;68167;59.120;37.898;2023-05-10T07:32:18;4.13;;;1.37;;
71696;SDS011;68167;59.120;37.898;2023-05-10T07:34:44;1.80;;;1.13;;
71696;SDS011;68167;59.120;37.898;2023-05-10T07:37:11;2.17;;;1.10;;
71696;SDS011;68167;59.120;37.898;2023-05-10T07:39:37;3.03;;;1.00;;
71696;SDS011;68167;59.120;37.898;2023-05-10T07:42:03;4.00;;;0.87;;
71696;SDS011;68167;59.120;37.898;2023-05-10T07:44:30;1.47;;;1.00;;
71696;SDS011;68167;59.120;37.898;2023-05-10T07:46:56;9.60;;;1.43;;
71696;SDS011;68167;59.120;37.898;2023-05-10T07:49:22;1.90;;;1.10;;
71696;SDS011;68167;59.120;37.898;2023-05-10T07:51:52;11.30;;;1.40;;
71696;SDS011;68167;59.120;37.898;2023-05-10T07:54:18;4.83;;;1.90;;
71696;SDS011;68167;59.120;37.898;2023-05-10T07:56:44;5.57;;;1.40;;
71696;SDS011;68167;59.120;37.898;2023-05-10T07:59:17;5.57;;;2.33;;
71696;SDS011;68167;59.120;37.898;2023-05-10T08:01:44;3.67;;;1.93;;
71696;SDS011;68167;59.120;37.898;2023-05-10T08:04:11;6.17;;;3.77;;
71696;SDS011;68167;59.120;37.898;2023-05-10T08:06:38;1.83;;;1.10;;
71696;SDS011;68167;59.120;37.898;2023-05-10T08:09:05;1.87;;;1.17;;
71696;SDS011;68167;59.120;37.898;2023-05-10T08:11:32;5.43;;;1.00;;
71696;SDS011;68167;59.120;37.898;2023-05-10T08:13:58;7.50;;;1.20;;
71696;SDS011;68167;59.120;37.898;2023-05-10T08:16:25;5.17;;;2.00;;
71696;SDS011;68167;59.120;37.898;2023-05-10T08:18:51;2.40;;;1.00;;
71696;SDS011;68167;59.120;37.898;2023-05-10T08:21:18;2.17;;;0.97;;
71696;SDS011;68167;59.120;37.898;2023-05-10T08:23:45;3.63;;;0.97;;
71696;SDS011;68167;59.120;37.898;2023-05-10T08:26:11;2.73;;;1.10;;
71696;SDS011;68167;59.120;37.898;2023-05-10T08:28:38;2.53;;;1.20;;
71696;SDS011;68167;59.120;37.898;2023-05-10T08:31:05;2.63;;;1.17;;
71696;SDS011;68167;59.120;37.898;2023-05-10T08:33:31;2.23;;;1.10;;
71696;SDS011;68167;59.120;37.898;2023-05-10T08:35:58;3.87;;;1.43;;
71696;SDS011;68167;59.120;37.898;2023-05-10T08:38:24;7.83;;;1.80;;
71696;SDS011;68167;59.120;37.898;2023-05-10T08:40:52;4.10;;;1.43;;
71696;SDS011;68167;59.120;37.898;2023-05-10T08:43:27;2.87;;;1.60;;
71696;SDS011;68167;59.120;37.898;2023-05-10T08:45:55;2.97;;;1.33;;
71696;SDS011;68167;59.120;37.898;2023-05-10T08:48:24;7.43;;;3.60;;
71696;SDS011;68167;59.120;37.898;2023-05-10T08:50:54;2.53;;;1.40;;
71696;SDS011;68167;59.120;37.898;2023-05-10T08:53:25;2.57;;;1.60;;
71696;SDS011;68167;59.120;37.898;2023-05-10T08:55:54;2.40;;;1.57;;
71696;SDS011;68167;59.120;37.898;2023-05-10T08:58:21;6.37;;;1.87;;
71696;SDS011;68167;59.120;37.898;2023-05-10T09:00:48;1.73;;;1.50;;
71696;SDS011;68167;59.120;37.898;2023-05-10T09:03:19;5.70;;;1.60;;
71696;SDS011;68167;59.120;37.898;2023-05-10T09:05:46;4.03;;;1.50;;
71696;SDS011;68167;59.120;37.898;2023-05-10T09:08:13;2.17;;;1.30;;
71696;SDS011;68167;59.120;37.898;2023-05-10T09:10:42;3.30;;;1.40;;
71696;SDS011;68167;59.120;37.898;2023-05-10T09:13:10;4.40;;;1.30;;
71696;SDS011;68167;59.120;37.898;2023-05-10T09:15:38;2.77;;;1.10;;
71696;SDS011;68167;59.120;37.898;2023-05-10T09:18:04;2.47;;;1.23;;
71696;SDS011;68167;59.120;37.898;2023-05-10T09:20:31;3.23;;;1.40;;
71696;SDS011;68167;59.120;37.898;2023-05-10T09:22:57;3.87;;;1.50;;
71696;SDS011;68167;59.120;37.898;2023-05-10T09:25:24;2.97;;;1.30;;
71696;SDS011;68167;59.120;37.898;2023-05-10T09:27:51;5.73;;;1.50;;
71696;SDS011;68167;59.120;37.898;2023-05-10T09:30:28;1.87;;;1.20;;
71696;SDS011;68167;59.120;37.898;2023-05-10T09:32:57;2.90;;;1.43;;
71696;SDS011;68167;59.120;37.898;2023-05-10T09:35:26;6.30;;;1.30;;
71696;SDS011;68167;59.120;37.898;2023-05-10T09:37:54;1.90;;;1.10;;
71696;SDS011;68167;59.120;37.898;2023-05-10T09:40:23;3.53;;;1.23;;
71696;SDS011;68167;59.120;37.898;2023-05-10T09:42:58;3.53;;;1.40;;
71696;SDS011;68167;59.120;37.898;2023-05-10T09:45:34;3.70;;;1.53;;
71696;SDS011;68167;59.120;37.898;2023-05-10T09:48:02;4.13;;;1.40;;
71696;SDS011;68167;59.120;37.898;2023-05-10T09:50:29;2.43;;;1.20;;
71696;SDS011;68167;59.120;37.898;2023-05-10T09:53:00;3.63;;;2.00;;
71696;SDS011;68167;59.120;37.898;2023-05-10T09:55:39;2.53;;;1.33;;
71696;SDS011;68167;59.120;37.898;2023-05-10T09:58:15;2.90;;;1.27;;
71696;SDS011;68167;59.120;37.898;2023-05-10T10:00:43;1.93;;;1.43;;
71696;SDS011;68167;59.120;37.898;2023-05-10T10:03:14;2.57;;;1.43;;
71696;SDS011;68167;59.120;37.898;2023-05-10T10:05:42;2.13;;;1.20;;
71696;SDS011;68167;59.120;37.898;2023-05-10T10:08:10;2.40;;;1.20;;
71696;SDS011;68167;59.120;37.898;2023-05-10T10:10:38;5.33;;;1.43;;
71696;SDS011;68167;59.120;37.898;2023-05-10T10:13:11;3.97;;;1.50;;
71696;SDS011;68167;59.120;37.898;2023-05-10T10:15:38;6.07;;;2.13;;
71696;SDS011;68167;59.120;37.898;2023-05-10T10:18:05;3.50;;;1.70;;
71696;SDS011;68167;59.120;37.898;2023-05-10T10:20:33;2.73;;;1.50;;
71696;SDS011;68167;59.120;37.898;2023-05-10T10:23:00;1.20;;;1.10;;
71696;SDS011;68167;59.120;37.898;2023-05-10T10:25:27;7.80;;;1.63;;
71696;SDS011;68167;59.120;37.898;2023-05-10T10:30:38;7.67;;;1.50;;
71696;SDS011;68167;59.120;37.898;2023-05-10T10:35:54;2.10;;;1.70;;
71696;SDS011;68167;59.120;37.898;2023-05-10T10:38:24;2.37;;;1.47;;
71696;SDS011;68167;59.120;37.898;2023-05-10T10:41:09;3.03;;;1.57;;
71696;SDS011;68167;59.120;37.898;2023-05-10T10:43:37;5.70;;;1.90;;
71696;SDS011;68167;59.120;37.898;2023-05-10T10:46:10;4.67;;;2.80;;
71696;SDS011;68167;59.120;37.898;2023-05-10T10:48:47;5.33;;;1.77;;
71696;SDS011;68167;59.120;37.898;2023-05-10T10:51:14;5.50;;;1.80;;
71696;SDS011;68167;59.120;37.898;2023-05-10T10:53:41;2.40;;;1.73;;
71696;SDS011;68167;59.120;37.898;2023-05-10T10:56:09;4.23;;;1.70;;
71696;SDS011;68167;59.120;37.898;2023-05-10T10:58:38;4.07;;;1.80;;
71696;SDS011;68167;59.120;37.898;2023-05-10T11:01:12;3.37;;;1.47;;
71696;SDS011;68167;59.120;37.898;2023-05-10T11:06:33;4.03;;;1.60;;
71696;SDS011;68167;59.120;37.898;2023-05-10T11:09:05;2.37;;;1.80;;
71696;SDS011;68167;59.120;37.898;2023-05-10T11:11:35;1.90;;;1.43;;
71696;SDS011;68167;59.120;37.898;2023-05-10T11:14:08;6.10;;;2.17;;
71696;SDS011;68167;59.120;37.898;2023-05-10T11:16:41;3.83;;;1.60;;
71696;SDS011;68167;59.120;37.898;2023-05-10T11:19:15;3.93;;;1.67;;
71696;SDS011;68167;59.120;37.898;2023-05-10T11:22:29;2.97;;;1.50;;
71696;SDS011;68167;59.120;37.898;2023-05-10T11:24:30;4.77;;;1.60;;
71696;SDS011;68167;59.120;37.898;2023-05-10T11:26:57;8.57;;;2.10;;
71696;SDS011;68167;59.120;37.898;2023-05-10T11:29:27;2.47;;;1.87;;
71696;SDS011;68167;59.120;37.898;2023-05-10T11:31:56;7.87;;;2.40;;
71696;SDS011;68167;59.120;37.898;2023-05-10T11:34:30;5.60;;;2.33;;
71696;SDS011;68167;59.120;37.898;2023-05-10T11:37:01;3.80;;;1.70;;
71696;SDS011;68167;59.120;37.898;2023-05-10T11:39:31;2.83;;;1.57;;
71696;SDS011;68167;59.120;37.898;2023-05-10T11:41:59;2.50;;;1.63;;
71696;SDS011;68167;59.120;37.898;2023-05-10T11:44:32;5.00;;;1.70;;
71696;SDS011;68167;59.120;37.898;2023-05-10T11:46:59;4.57;;;1.90;;
71696;SDS011;68167;59.120;37.898;2023-05-10T11:49:26;3.23;;;1.97;;
71696;SDS011;68167;59.120;37.898;2023-05-10T11:52:02;2.80;;;1.97;;
71696;SDS011;68167;59.120;37.898;2023-05-10T11:54:30;3.93;;;1.80;;
71696;SDS011;68167;59.120;37.898;2023-05-10T11:56:57;3.03;;;1.37;;
71696;SDS011;68167;59.120;37.898;2023-05-10T11:59:23;4.47;;;1.87;;
71696;SDS011;68167;59.120;37.898;2023-05-10T12:01:51;2.90;;;1.80;;
71696;SDS011;68167;59.120;37.898;2023-05-10T12:04:18;6.07;;;2.00;;
71696;SDS011;68167;59.120;37.898;2023-05-10T12:06:44;3.17;;;2.10;;
71696;SDS011;68167;59.120;37.898;2023-05-10T12:09:12;3.03;;;1.97;;
71696;SDS011;68167;59.120;37.898;2023-05-10T12:11:39;4.07;;;2.13;;
71696;SDS011;68167;59.120;37.898;2023-05-10T12:14:08;2.53;;;1.60;;
71696;SDS011;68167;59.120;37.898;2023-05-10T12:16:35;3.23;;;1.50;;
71696;SDS011;68167;59.120;37.898;2023-05-10T12:19:02;4.40;;;1.70;;
71696;SDS011;68167;59.120;37.898;2023-05-10T12:21:29;5.77;;;1.73;;
71696;SDS011;68167;59.120;37.898;2023-05-10T12:24:01;4.73;;;1.70;;
71696;SDS011;68167;59.120;37.898;2023-05-10T12:26:29;3.50;;;1.80;;
71696;SDS011;68167;59.120;37.898;2023-05-10T12:29:12;1.93;;;1.40;;
71696;SDS011;68167;59.120;37.898;2023-05-10T12:31:52;2.57;;;1.90;;
71696;SDS011;68167;59.120;37.898;2023-05-10T12:36:51;5.60;;;2.00;;
71696;SDS011;68167;59.120;37.898;2023-05-10T12:39:19;4.97;;;2.40;;
71696;SDS011;68167;59.120;37.898;2023-05-10T12:41:45;2.70;;;2.10;;
71696;SDS011;68167;59.120;37.898;2023-05-10T12:44:12;6.80;;;4.23;;
71696;SDS011;68167;59.120;37.898;2023-05-10T12:46:38;5.43;;;1.80;;
71696;SDS011;68167;59.120;37.898;2023-05-10T12:49:05;4.37;;;2.00;;
71696;SDS011;68167;59.120;37.898;2023-05-10T12:51:32;3.93;;;1.80;;
71696;SDS011;68167;59.120;37.898;2023-05-10T12:53:58;5.07;;;1.50;;
71696;SDS011;68167;59.120;37.898;2023-05-10T12:56:25;6.40;;;1.70;;
71696;SDS011;68167;59.120;37.898;2023-05-10T12:58:52;5.63;;;1.90;;
71696;SDS011;68167;59.120;37.898;2023-05-10T13:01:19;6.70;;;2.73;;
71696;SDS011;68167;59.120;37.898;2023-05-10T13:03:45;3.73;;;1.63;;
71696;SDS011;68167;59.120;37.898;2023-05-10T13:06:13;3.70;;;1.97;;
71696;SDS011;68167;59.120;37.898;2023-05-10T13:08:39;3.67;;;1.90;;
71696;SDS011;68167;59.120;37.898;2023-05-10T13:11:06;3.03;;;1.80;;
71696;SDS011;68167;59.120;37.898;2023-05-10T13:13:33;4.67;;;1.77;;
71696;SDS011;68167;59.120;37.898;2023-05-10T13:16:00;2.43;;;1.67;;
71696;SDS011;68167;59.120;37.898;2023-05-10T13:18:26;10.50;;;1.80;;
71696;SDS011;68167;59.120;37.898;2023-05-10T13:20:53;2.70;;;1.77;;
71696;SDS011;68167;59.120;37.898;2023-05-10T13:23:20;1.90;;;1.50;;
71696;SDS011;68167;59.120;37.898;2023-05-10T13:25:47;2.00;;;1.70;;
71696;SDS011;68167;59.120;37.898;2023-05-10T13:28:13;4.33;;;1.73;;
71696;SDS011;68167;59.120;37.898;2023-05-10T13:30:40;3.43;;;1.87;;
71696;SDS011;68167;59.120;37.898;2023-05-10T13:33:07;2.57;;;1.87;;
71696;SDS011;68167;59.120;37.898;2023-05-10T13:35:34;7.60;;;2.40;;
71696;SDS011;68167;59.120;37.898;2023-05-10T13:38:00;15.00;;;2.50;;
71696;SDS011;68167;59.120;37.898;2023-05-10T13:40:27;5.73;;;1.83;;
71696;SDS011;68167;59.120;37.898;2023-05-10T13:42:54;3.67;;;1.77;;
71696;SDS011;68167;59.120;37.898;2023-05-10T13:45:20;3.37;;;2.17;;
71696;SDS011;68167;59.120;37.898;2023-05-10T13:47:47;5.90;;;2.40;;
71696;SDS011;68167;59.120;37.898;2023-05-10T13:50:13;7.77;;;2.50;;
71696;SDS011;68167;59.120;37.898;2023-05-10T13:52:40;5.50;;;2.40;;
71696;SDS011;68167;59.120;37.898;2023-05-10T13:55:07;7.47;;;2.33;;
71696;SDS011;68167;59.120;37.898;2023-05-10T13:57:33;5.53;;;2.07;;
71696;SDS011;68167;59.120;37.898;2023-05-10T14:00:01;4.93;;;2.20;;
71696;SDS011;68167;59.120;37.898;2023-05-10T14:02:34;9.47;;;2.30;;
71696;SDS011;68167;59.120;37.898;2023-05-10T14:05:01;6.13;;;1.93;;
71696;SDS011;68167;59.120;37.898;2023-05-10T14:07:29;8.07;;;2.43;;
71696;SDS011;68167;59.120;37.898;2023-05-10T14:09:56;5.77;;;2.00;;
71696;SDS011;68167;59.120;37.898;2023-05-10T14:12:23;9.07;;;2.40;;
71696;SDS011;68167;59.120;37.898;2023-05-10T14:14:49;4.23;;;1.83;;
71696;SDS011;68167;59.120;37.898;2023-05-10T14:17:16;5.43;;;1.57;;
71696;SDS011;68167;59.120;37.898;2023-05-10T14:19:42;3.90;;;1.70;;
71696;SDS011;68167;59.120;37.898;2023-05-10T14:22:09;3.83;;;1.43;;
71696;SDS011;68167;59.120;37.898;2023-05-10T14:24:36;3.83;;;1.67;;
71696;SDS011;68167;59.120;37.898;2023-05-10T14:27:02;3.43;;;1.73;;
71696;SDS011;68167;59.120;37.898;2023-05-10T14:29:28;5.40;;;1.70;;
71696;SDS011;68167;59.120;37.898;2023-05-10T14:31:55;4.93;;;2.30;;
71696;SDS011;68167;59.120;37.898;2023-05-10T14:34:21;4.37;;;1.87;;
71696;SDS011;68167;59.120;37.898;2023-05-10T14:36:47;6.17;;;2.10;;
71696;SDS011;68167;59.120;37.898;2023-05-10T14:39:14;3.43;;;1.80;;
71696;SDS011;68167;59.120;37.898;2023-05-10T14:41:40;5.43;;;2.17;;
71696;SDS011;68167;59.120;37.898;2023-05-10T14:44:08;5.13;;;1.90;;
71696;SDS011;68167;59.120;37.898;2023-05-10T14:46:41;3.40;;;2.07;;
71696;SDS011;68167;59.120;37.898;2023-05-10T14:49:07;4.30;;;1.90;;
71696;SDS011;68167;59.120;37.898;2023-05-10T14:51:34;5.20;;;1.80;;
71696;SDS011;68167;59.120;37.898;2023-05-10T14:54:02;4.23;;;2.20;;
71696;SDS011;68167;59.120;37.898;2023-05-10T14:56:28;5.97;;;1.97;;
71696;SDS011;68167;59.120;37.898;2023-05-10T14:58:55;4.10;;;1.80;;
71696;SDS011;68167;59.120;37.898;2023-05-10T15:01:21;9.07;;;1.87;;
71696;SDS011;68167;59.120;37.898;2023-05-10T15:03:48;5.97;;;2.10;;
71696;SDS011;68167;59.120;37.898;2023-05-10T15:06:14;4.47;;;2.30;;